DAL756 TNCA-SVMI
Flight info
| Callsign | DAL756 |
|---|---|
| Flight time | N/A |
| Altitude | 31000 |
| Route | ELOTU1F ELOTU DCT ALCOT UG442 VUNUM DCT ISISU ALDAK1 |
| Aircraft | B737/M-SDE2E3FGHIRWXY/LB1 |
Departure
| Time | 2026-04-30 14:35 |
|---|---|
| Airport | Queen Beatrix International Airport (TNCA) |
Arrival
| Time | N/A |
|---|---|
| Airport | Maiquetía Simón Bolívar International Airport (SVMI) |
| Time | Latitude | Longitude | Altitude | Speed | Heading |
|---|---|---|---|---|---|
| 2026-04-30 13:55 | 12.50275 | -70.00760 | 45 ft | 0 kts | 16° |
| 2026-04-30 14:02 | 12.50274 | -70.00760 | 45 ft | 0 kts | 16° |
| 2026-04-30 14:20 | 12.50245 | -70.00768 | 45 ft | 2 kts | 355° |
| 2026-04-30 14:21 | 12.50222 | -70.00766 | 44 ft | 4 kts | 353° |
| 2026-04-30 14:21 | 12.50197 | -70.00760 | 45 ft | 4 kts | 323° |
| 2026-04-30 14:21 | 12.50187 | -70.00749 | 43 ft | 1 kts | 284° |
| 2026-04-30 14:29 | 12.50188 | -70.00752 | 46 ft | 1 kts | 284° |
| 2026-04-30 14:30 | 12.50222 | -70.00889 | 46 ft | 10 kts | 283° |
| 2026-04-30 14:31 | 12.50261 | -70.01062 | 46 ft | 15 kts | 272° |
| 2026-04-30 14:31 | 12.50258 | -70.01282 | 42 ft | 18 kts | 282° |
| 2026-04-30 14:31 | 12.50290 | -70.01412 | 45 ft | 19 kts | 284° |
| 2026-04-30 14:32 | 12.50361 | -70.01705 | 44 ft | 23 kts | 284° |
| 2026-04-30 14:32 | 12.50401 | -70.01875 | 42 ft | 25 kts | 283° |
| 2026-04-30 14:32 | 12.50442 | -70.02052 | 44 ft | 27 kts | 284° |
| 2026-04-30 14:33 | 12.50487 | -70.02242 | 42 ft | 28 kts | 283° |
| 2026-04-30 14:33 | 12.50569 | -70.02586 | 43 ft | 0 kts | 285° |
| 2026-04-30 14:34 | 12.50572 | -70.02596 | 43 ft | 3 kts | 285° |
| 2026-04-30 14:34 | 12.50577 | -70.02639 | 43 ft | 9 kts | 263° |
| 2026-04-30 14:34 | 12.50542 | -70.02715 | 38 ft | 15 kts | 243° |
| 2026-04-30 14:34 | 12.50457 | -70.02807 | 31 ft | 22 kts | 172° |
| 2026-04-30 14:35 | 12.50343 | -70.02381 | 35 ft | 95 kts | 103° |
| 2026-04-30 14:35 | 12.50016 | -70.00992 | 72 ft | 201 kts | 103° |
| 2026-04-30 14:35 | 12.49648 | -69.99607 | 1295 ft | 190 kts | 105° |
| 2026-04-30 14:36 | 12.49464 | -69.98354 | 3068 ft | 172 kts | 90° |
| 2026-04-30 14:36 | 12.49315 | -69.97053 | 4045 ft | 190 kts | 108° |
| 2026-04-30 14:36 | 12.48936 | -69.95765 | 5006 ft | 198 kts | 107° |
| 2026-04-30 14:36 | 12.48356 | -69.94345 | 5315 ft | 238 kts | 126° |
| 2026-04-30 14:37 | 12.47258 | -69.92963 | 6022 ft | 257 kts | 129° |
| 2026-04-30 14:37 | 12.46103 | -69.91540 | 7084 ft | 263 kts | 130° |
| 2026-04-30 14:37 | 12.44928 | -69.90084 | 8156 ft | 268 kts | 130° |
| 2026-04-30 14:37 | 12.43739 | -69.88595 | 9150 ft | 273 kts | 130° |
| 2026-04-30 14:38 | 12.42527 | -69.87067 | 10097 ft | 280 kts | 130° |
| 2026-04-30 14:38 | 12.41265 | -69.85468 | 10613 ft | 302 kts | 129° |
| 2026-04-30 14:38 | 12.39884 | -69.83713 | 10970 ft | 326 kts | 128° |
| 2026-04-30 14:38 | 12.38447 | -69.81883 | 11780 ft | 333 kts | 128° |
| 2026-04-30 14:39 | 12.36987 | -69.80019 | 12653 ft | 338 kts | 128° |
| 2026-04-30 14:39 | 12.35502 | -69.78122 | 13491 ft | 344 kts | 128° |
| 2026-04-30 14:39 | 12.33996 | -69.76198 | 14339 ft | 348 kts | 128° |
| 2026-04-30 14:40 | 12.30929 | -69.72281 | 15902 ft | 358 kts | 129° |
| 2026-04-30 14:40 | 12.29361 | -69.70282 | 16628 ft | 363 kts | 129° |
| 2026-04-30 14:40 | 12.27770 | -69.68251 | 17340 ft | 368 kts | 129° |
| 2026-04-30 14:40 | 12.26164 | -69.66204 | 18084 ft | 371 kts | 130° |
| 2026-04-30 14:41 | 12.24483 | -69.64182 | 18769 ft | 375 kts | 132° |
| 2026-04-30 14:41 | 12.22734 | -69.62180 | 19413 ft | 380 kts | 133° |
| 2026-04-30 14:41 | 12.20950 | -69.60164 | 20036 ft | 385 kts | 133° |
| 2026-04-30 14:41 | 12.19143 | -69.58122 | 20648 ft | 389 kts | 133° |
| 2026-04-30 14:42 | 12.17321 | -69.56052 | 21252 ft | 394 kts | 133° |
| 2026-04-30 14:42 | 12.15484 | -69.53957 | 21827 ft | 398 kts | 133° |
| 2026-04-30 14:42 | 12.13631 | -69.51836 | 22381 ft | 402 kts | 133° |
| 2026-04-30 14:42 | 12.11784 | -69.49719 | 22913 ft | 406 kts | 133° |
| 2026-04-30 14:43 | 12.09870 | -69.47523 | 23436 ft | 410 kts | 133° |
| 2026-04-30 14:43 | 12.07963 | -69.45336 | 23949 ft | 414 kts | 133° |
| 2026-04-30 14:43 | 12.06041 | -69.43130 | 24442 ft | 417 kts | 133° |
| 2026-04-30 14:43 | 12.04102 | -69.40906 | 24913 ft | 421 kts | 133° |
| 2026-04-30 14:44 | 12.02174 | -69.38695 | 25393 ft | 424 kts | 133° |
| 2026-04-30 14:44 | 12.00215 | -69.36450 | 26010 ft | 422 kts | 133° |
| 2026-04-30 14:44 | 11.98267 | -69.34214 | 26704 ft | 420 kts | 133° |
| 2026-04-30 14:44 | 11.96332 | -69.31995 | 27399 ft | 417 kts | 133° |
| 2026-04-30 14:45 | 11.94404 | -69.29786 | 28043 ft | 417 kts | 133° |
| 2026-04-30 14:45 | 11.92480 | -69.27581 | 28676 ft | 416 kts | 133° |
| 2026-04-30 14:45 | 11.90556 | -69.25380 | 29312 ft | 415 kts | 133° |
| 2026-04-30 14:45 | 11.88633 | -69.23189 | 29952 ft | 413 kts | 133° |
| 2026-04-30 14:46 | 11.86715 | -69.21008 | 30576 ft | 413 kts | 133° |
| 2026-04-30 14:46 | 11.84789 | -69.18824 | 30927 ft | 418 kts | 134° |
| 2026-04-30 14:46 | 11.81516 | -69.15107 | 30922 ft | 419 kts | 134° |
| 2026-04-30 14:47 | 11.77038 | -69.10017 | 30930 ft | 414 kts | 134° |
| 2026-04-30 14:47 | 11.73826 | -69.06368 | 30934 ft | 417 kts | 133° |
| 2026-04-30 14:48 | 11.69286 | -69.01215 | 30934 ft | 418 kts | 133° |
| 2026-04-30 14:48 | 11.66056 | -68.97547 | 30928 ft | 418 kts | 133° |
| 2026-04-30 14:49 | 11.62174 | -68.93142 | 30927 ft | 417 kts | 133° |
| 2026-04-30 14:49 | 11.58303 | -68.88752 | 30934 ft | 416 kts | 133° |
| 2026-04-30 14:50 | 11.52510 | -68.82187 | 30936 ft | 415 kts | 133° |
| 2026-04-30 14:51 | 11.46719 | -68.75628 | 30938 ft | 415 kts | 133° |
| 2026-04-30 14:52 | 11.40927 | -68.69070 | 30937 ft | 415 kts | 133° |
| 2026-04-30 14:52 | 11.35128 | -68.62508 | 30947 ft | 416 kts | 133° |
| 2026-04-30 14:53 | 11.29319 | -68.55944 | 30946 ft | 416 kts | 133° |
| 2026-04-30 14:54 | 11.25433 | -68.51551 | 30412 ft | 418 kts | 133° |
| 2026-04-30 14:54 | 11.21547 | -68.47161 | 29412 ft | 414 kts | 133° |
| 2026-04-30 14:55 | 11.17564 | -68.43026 | 28450 ft | 405 kts | 144° |
| 2026-04-30 14:55 | 11.15220 | -68.41470 | 28031 ft | 399 kts | 152° |
| 2026-04-30 14:55 | 11.10122 | -68.39481 | 27159 ft | 389 kts | 163° |
| 2026-04-30 14:56 | 11.04991 | -68.37833 | 26236 ft | 384 kts | 162° |
| 2026-04-30 14:56 | 11.00763 | -68.34749 | 25412 ft | 376 kts | 126° |
| 2026-04-30 14:57 | 10.99307 | -68.32550 | 24984 ft | 373 kts | 123° |
| 2026-04-30 14:57 | 10.96605 | -68.28127 | 24094 ft | 368 kts | 122° |
| 2026-04-30 14:58 | 10.93931 | -68.23735 | 23191 ft | 363 kts | 123° |
| 2026-04-30 14:58 | 10.92599 | -68.21566 | 22738 ft | 360 kts | 122° |
| 2026-04-30 14:58 | 10.89945 | -68.17293 | 21827 ft | 354 kts | 123° |
| 2026-04-30 14:59 | 10.87319 | -68.13101 | 20951 ft | 349 kts | 123° |
| 2026-04-30 15:00 | 10.83456 | -68.06929 | 19626 ft | 341 kts | 123° |
| 2026-04-30 15:00 | 10.80933 | -68.02901 | 18756 ft | 335 kts | 123° |
| 2026-04-30 15:01 | 10.78444 | -67.98928 | 17887 ft | 330 kts | 123° |
| 2026-04-30 15:01 | 10.77219 | -67.96972 | 17458 ft | 327 kts | 123° |
| 2026-04-30 15:01 | 10.74804 | -67.93119 | 16731 ft | 317 kts | 123° |
| 2026-04-30 15:02 | 10.73621 | -67.91233 | 16288 ft | 315 kts | 123° |
| 2026-04-30 15:02 | 10.72449 | -67.89363 | 15889 ft | 312 kts | 123° |
| 2026-04-30 15:03 | 10.68984 | -67.83838 | 14652 ft | 305 kts | 122° |
| 2026-04-30 15:03 | 10.66720 | -67.80230 | 13814 ft | 301 kts | 122° |
| 2026-04-30 15:04 | 10.64492 | -67.76681 | 13013 ft | 295 kts | 122° |
| 2026-04-30 15:04 | 10.61217 | -67.71464 | 11823 ft | 288 kts | 122° |
| 2026-04-30 15:05 | 10.58295 | -67.66224 | 10603 ft | 283 kts | 101° |
| 2026-04-30 15:06 | 10.58224 | -67.62307 | 10180 ft | 269 kts | 89° |
| 2026-04-30 15:06 | 10.58399 | -67.58489 | 9614 ft | 278 kts | 88° |
| 2026-04-30 15:07 | 10.58562 | -67.54595 | 9113 ft | 264 kts | 88° |
| 2026-04-30 15:07 | 10.58695 | -67.51114 | 8858 ft | 234 kts | 89° |
| 2026-04-30 15:08 | 10.58806 | -67.48013 | 8623 ft | 207 kts | 89° |
| 2026-04-30 15:08 | 10.58953 | -67.43768 | 7750 ft | 195 kts | 89° |
| 2026-04-30 15:09 | 10.59048 | -67.41025 | 7065 ft | 194 kts | 89° |
| 2026-04-30 15:09 | 10.59141 | -67.38317 | 6425 ft | 190 kts | 89° |
| 2026-04-30 15:10 | 10.59230 | -67.35653 | 5769 ft | 188 kts | 89° |
| 2026-04-30 15:11 | 10.59405 | -67.30426 | 4468 ft | 182 kts | 89° |
| 2026-04-30 15:11 | 10.59492 | -67.27912 | 4043 ft | 168 kts | 89° |
| 2026-04-30 15:12 | 10.59609 | -67.24437 | 4036 ft | 166 kts | 89° |
| 2026-04-30 15:13 | 10.59687 | -67.22087 | 4039 ft | 165 kts | 89° |
| 2026-04-30 15:14 | 10.59843 | -67.17371 | 3406 ft | 163 kts | 89° |
| 2026-04-30 15:14 | 10.59956 | -67.13962 | 2761 ft | 161 kts | 89° |
| 2026-04-30 15:16 | 10.60148 | -67.08266 | 1639 ft | 158 kts | 88° |
| 2026-04-30 15:17 | 10.60291 | -67.03992 | 818 ft | 132 kts | 91° |
| 2026-04-30 15:18 | 10.60433 | -66.99751 | 214 ft | 101 kts | 79° |
| 2026-04-30 15:19 | 10.60398 | -66.98690 | 179 ft | 15 kts | 241° |